sensor_id;sensor_type;location;lat;lon;timestamp;P1;durP1;ratioP1;P2;durP2;ratioP2
76667;SDS011;65585;51.166;16.922;2023-08-20T00:01:44;24.67;;;19.45;;
76667;SDS011;65585;51.166;16.922;2023-08-20T00:04:11;21.90;;;18.40;;
76667;SDS011;65585;51.166;16.922;2023-08-20T00:06:36;20.45;;;16.63;;
76667;SDS011;65585;51.166;16.922;2023-08-20T00:09:03;21.38;;;18.20;;
76667;SDS011;65585;51.166;16.922;2023-08-20T00:11:31;20.42;;;16.73;;
76667;SDS011;65585;51.166;16.922;2023-08-20T00:13:58;21.00;;;18.10;;
76667;SDS011;65585;51.166;16.922;2023-08-20T00:16:23;22.90;;;18.90;;
76667;SDS011;65585;51.166;16.922;2023-08-20T00:18:50;20.52;;;17.38;;
76667;SDS011;65585;51.166;16.922;2023-08-20T00:21:16;22.85;;;16.85;;
76667;SDS011;65585;51.166;16.922;2023-08-20T00:23:42;20.98;;;17.23;;
76667;SDS011;65585;51.166;16.922;2023-08-20T00:26:08;22.60;;;18.48;;
76667;SDS011;65585;51.166;16.922;2023-08-20T00:28:35;22.45;;;17.83;;
76667;SDS011;65585;51.166;16.922;2023-08-20T00:31:02;21.85;;;18.17;;
76667;SDS011;65585;51.166;16.922;2023-08-20T00:33:28;21.67;;;18.42;;
76667;SDS011;65585;51.166;16.922;2023-08-20T00:35:54;22.33;;;16.30;;
76667;SDS011;65585;51.166;16.922;2023-08-20T00:38:20;22.65;;;17.10;;
76667;SDS011;65585;51.166;16.922;2023-08-20T00:40:46;22.15;;;18.27;;
76667;SDS011;65585;51.166;16.922;2023-08-20T00:43:12;20.95;;;17.13;;
76667;SDS011;65585;51.166;16.922;2023-08-20T00:45:38;21.80;;;17.63;;
76667;SDS011;65585;51.166;16.922;2023-08-20T00:48:06;24.10;;;17.45;;
76667;SDS011;65585;51.166;16.922;2023-08-20T00:50:31;24.08;;;17.92;;
76667;SDS011;65585;51.166;16.922;2023-08-20T00:52:58;22.17;;;18.67;;
76667;SDS011;65585;51.166;16.922;2023-08-20T00:55:24;21.10;;;17.60;;
76667;SDS011;65585;51.166;16.922;2023-08-20T00:57:50;20.65;;;17.80;;
76667;SDS011;65585;51.166;16.922;2023-08-20T01:00:16;22.05;;;17.05;;
76667;SDS011;65585;51.166;16.922;2023-08-20T01:02:43;21.48;;;17.75;;
76667;SDS011;65585;51.166;16.922;2023-08-20T01:05:10;22.50;;;18.33;;
76667;SDS011;65585;51.166;16.922;2023-08-20T01:07:46;20.15;;;17.40;;
76667;SDS011;65585;51.166;16.922;2023-08-20T01:12:55;22.20;;;17.63;;
76667;SDS011;65585;51.166;16.922;2023-08-20T01:15:21;21.40;;;17.63;;
76667;SDS011;65585;51.166;16.922;2023-08-20T01:17:48;21.60;;;16.75;;
76667;SDS011;65585;51.166;16.922;2023-08-20T01:20:13;19.90;;;17.42;;
76667;SDS011;65585;51.166;16.922;2023-08-20T01:30:17;23.67;;;17.85;;
76667;SDS011;65585;51.166;16.922;2023-08-20T01:32:44;27.98;;;17.63;;
76667;SDS011;65585;51.166;16.922;2023-08-20T01:35:13;22.52;;;17.63;;
76667;SDS011;65585;51.166;16.922;2023-08-20T01:37:42;20.98;;;17.85;;
76667;SDS011;65585;51.166;16.922;2023-08-20T01:40:07;21.02;;;15.70;;
76667;SDS011;65585;51.166;16.922;2023-08-20T01:42:37;21.23;;;17.02;;
76667;SDS011;65585;51.166;16.922;2023-08-20T01:45:03;23.65;;;18.35;;
76667;SDS011;65585;51.166;16.922;2023-08-20T01:47:30;22.42;;;17.95;;
76667;SDS011;65585;51.166;16.922;2023-08-20T01:49:56;22.70;;;17.45;;
76667;SDS011;65585;51.166;16.922;2023-08-20T01:52:22;25.58;;;19.30;;
76667;SDS011;65585;51.166;16.922;2023-08-20T01:54:48;28.40;;;18.38;;
76667;SDS011;65585;51.166;16.922;2023-08-20T01:57:14;31.02;;;19.55;;
76667;SDS011;65585;51.166;16.922;2023-08-20T01:59:40;29.55;;;20.90;;
76667;SDS011;65585;51.166;16.922;2023-08-20T02:02:06;27.10;;;20.58;;
76667;SDS011;65585;51.166;16.922;2023-08-20T02:04:32;28.25;;;18.42;;
76667;SDS011;65585;51.166;16.922;2023-08-20T02:06:59;24.20;;;18.40;;
76667;SDS011;65585;51.166;16.922;2023-08-20T02:09:25;22.23;;;17.83;;
76667;SDS011;65585;51.166;16.922;2023-08-20T02:11:51;27.63;;;19.67;;
76667;SDS011;65585;51.166;16.922;2023-08-20T02:14:17;25.85;;;19.48;;
76667;SDS011;65585;51.166;16.922;2023-08-20T02:16:44;23.38;;;18.55;;
76667;SDS011;65585;51.166;16.922;2023-08-20T02:19:09;20.30;;;15.48;;
76667;SDS011;65585;51.166;16.922;2023-08-20T02:21:36;23.00;;;16.92;;
76667;SDS011;65585;51.166;16.922;2023-08-20T02:24:02;24.08;;;18.23;;
76667;SDS011;65585;51.166;16.922;2023-08-20T02:26:28;23.33;;;17.10;;
76667;SDS011;65585;51.166;16.922;2023-08-20T02:28:53;20.48;;;15.38;;
76667;SDS011;65585;51.166;16.922;2023-08-20T02:31:19;21.35;;;18.23;;
76667;SDS011;65585;51.166;16.922;2023-08-20T02:33:45;19.02;;;15.23;;
76667;SDS011;65585;51.166;16.922;2023-08-20T02:36:19;20.50;;;15.82;;
76667;SDS011;65585;51.166;16.922;2023-08-20T02:38:44;21.50;;;17.45;;
76667;SDS011;65585;51.166;16.922;2023-08-20T02:41:11;22.65;;;16.27;;
76667;SDS011;65585;51.166;16.922;2023-08-20T02:43:37;20.92;;;17.00;;
76667;SDS011;65585;51.166;16.922;2023-08-20T02:46:03;22.23;;;15.55;;
76667;SDS011;65585;51.166;16.922;2023-08-20T02:48:30;17.52;;;14.57;;
76667;SDS011;65585;51.166;16.922;2023-08-20T02:50:56;19.67;;;15.30;;
76667;SDS011;65585;51.166;16.922;2023-08-20T02:53:22;22.25;;;16.15;;
76667;SDS011;65585;51.166;16.922;2023-08-20T02:55:48;21.25;;;18.10;;
76667;SDS011;65585;51.166;16.922;2023-08-20T02:58:14;18.17;;;14.95;;
76667;SDS011;65585;51.166;16.922;2023-08-20T03:00:41;19.83;;;16.42;;
76667;SDS011;65585;51.166;16.922;2023-08-20T03:03:07;19.58;;;15.40;;
76667;SDS011;65585;51.166;16.922;2023-08-20T03:05:34;20.05;;;16.63;;
76667;SDS011;65585;51.166;16.922;2023-08-20T03:08:00;20.48;;;16.77;;
76667;SDS011;65585;51.166;16.922;2023-08-20T03:10:30;19.38;;;14.68;;
76667;SDS011;65585;51.166;16.922;2023-08-20T03:12:57;18.30;;;15.68;;
76667;SDS011;65585;51.166;16.922;2023-08-20T03:15:23;22.90;;;16.10;;
76667;SDS011;65585;51.166;16.922;2023-08-20T03:17:48;20.23;;;17.20;;
76667;SDS011;65585;51.166;16.922;2023-08-20T03:20:15;22.75;;;17.35;;
76667;SDS011;65585;51.166;16.922;2023-08-20T03:22:40;20.40;;;16.15;;
76667;SDS011;65585;51.166;16.922;2023-08-20T03:25:06;22.00;;;16.33;;
76667;SDS011;65585;51.166;16.922;2023-08-20T03:27:33;34.75;;;17.95;;
76667;SDS011;65585;51.166;16.922;2023-08-20T03:29:59;33.95;;;18.25;;
76667;SDS011;65585;51.166;16.922;2023-08-20T03:32:25;24.80;;;15.98;;
76667;SDS011;65585;51.166;16.922;2023-08-20T03:34:51;24.60;;;18.35;;
76667;SDS011;65585;51.166;16.922;2023-08-20T03:37:19;26.50;;;16.92;;
76667;SDS011;65585;51.166;16.922;2023-08-20T03:39:45;25.30;;;16.10;;
76667;SDS011;65585;51.166;16.922;2023-08-20T03:42:11;24.73;;;16.25;;
76667;SDS011;65585;51.166;16.922;2023-08-20T03:44:37;26.42;;;16.33;;
76667;SDS011;65585;51.166;16.922;2023-08-20T03:47:03;30.25;;;19.27;;
76667;SDS011;65585;51.166;16.922;2023-08-20T03:49:29;28.02;;;17.40;;
76667;SDS011;65585;51.166;16.922;2023-08-20T03:51:55;24.80;;;17.77;;
76667;SDS011;65585;51.166;16.922;2023-08-20T03:54:21;24.73;;;15.93;;
76667;SDS011;65585;51.166;16.922;2023-08-20T03:56:47;24.63;;;17.63;;
76667;SDS011;65585;51.166;16.922;2023-08-20T03:59:13;25.08;;;16.35;;
76667;SDS011;65585;51.166;16.922;2023-08-20T04:01:39;23.27;;;17.60;;
76667;SDS011;65585;51.166;16.922;2023-08-20T04:04:05;26.67;;;18.95;;
76667;SDS011;65585;51.166;16.922;2023-08-20T04:06:31;26.88;;;18.05;;
76667;SDS011;65585;51.166;16.922;2023-08-20T04:08:57;27.88;;;18.77;;
76667;SDS011;65585;51.166;16.922;2023-08-20T04:11:23;23.77;;;17.50;;
76667;SDS011;65585;51.166;16.922;2023-08-20T04:13:49;24.17;;;16.83;;
76667;SDS011;65585;51.166;16.922;2023-08-20T04:16:15;24.17;;;16.83;;
76667;SDS011;65585;51.166;16.922;2023-08-20T04:18:41;24.15;;;17.63;;
76667;SDS011;65585;51.166;16.922;2023-08-20T04:21:07;24.88;;;19.17;;
76667;SDS011;65585;51.166;16.922;2023-08-20T04:23:33;25.38;;;18.73;;
76667;SDS011;65585;51.166;16.922;2023-08-20T04:25:59;25.65;;;17.85;;
76667;SDS011;65585;51.166;16.922;2023-08-20T04:28:25;29.98;;;17.73;;
76667;SDS011;65585;51.166;16.922;2023-08-20T04:30:54;26.98;;;17.92;;
76667;SDS011;65585;51.166;16.922;2023-08-20T04:33:20;24.45;;;17.83;;
76667;SDS011;65585;51.166;16.922;2023-08-20T04:35:46;27.27;;;18.30;;
76667;SDS011;65585;51.166;16.922;2023-08-20T04:38:12;21.02;;;16.38;;
76667;SDS011;65585;51.166;16.922;2023-08-20T04:40:38;19.35;;;15.90;;
76667;SDS011;65585;51.166;16.922;2023-08-20T04:43:04;27.30;;;19.52;;
76667;SDS011;65585;51.166;16.922;2023-08-20T04:45:30;23.30;;;17.70;;
76667;SDS011;65585;51.166;16.922;2023-08-20T04:47:56;21.70;;;16.35;;
76667;SDS011;65585;51.166;16.922;2023-08-20T04:50:22;22.27;;;18.10;;
76667;SDS011;65585;51.166;16.922;2023-08-20T04:52:48;24.13;;;17.30;;
76667;SDS011;65585;51.166;16.922;2023-08-20T04:55:14;21.33;;;16.25;;
76667;SDS011;65585;51.166;16.922;2023-08-20T04:57:41;21.70;;;15.93;;
76667;SDS011;65585;51.166;16.922;2023-08-20T05:00:07;21.73;;;15.95;;
76667;SDS011;65585;51.166;16.922;2023-08-20T05:02:35;47.75;;;21.05;;
76667;SDS011;65585;51.166;16.922;2023-08-20T05:05:02;32.40;;;20.58;;
76667;SDS011;65585;51.166;16.922;2023-08-20T05:07:28;34.83;;;22.77;;
76667;SDS011;65585;51.166;16.922;2023-08-20T05:09:54;34.38;;;21.52;;
76667;SDS011;65585;51.166;16.922;2023-08-20T05:12:20;31.70;;;20.50;;
76667;SDS011;65585;51.166;16.922;2023-08-20T05:14:46;24.75;;;17.48;;
76667;SDS011;65585;51.166;16.922;2023-08-20T05:17:12;23.98;;;19.23;;
76667;SDS011;65585;51.166;16.922;2023-08-20T05:19:38;29.85;;;20.67;;
76667;SDS011;65585;51.166;16.922;2023-08-20T05:22:04;26.98;;;19.60;;
76667;SDS011;65585;51.166;16.922;2023-08-20T05:24:29;28.70;;;21.38;;
76667;SDS011;65585;51.166;16.922;2023-08-20T05:27:09;25.55;;;20.77;;
76667;SDS011;65585;51.166;16.922;2023-08-20T05:29:36;25.92;;;18.80;;
76667;SDS011;65585;51.166;16.922;2023-08-20T05:32:02;24.52;;;19.23;;
76667;SDS011;65585;51.166;16.922;2023-08-20T05:34:28;27.15;;;20.15;;
76667;SDS011;65585;51.166;16.922;2023-08-20T05:36:54;23.20;;;20.65;;
76667;SDS011;65585;51.166;16.922;2023-08-20T05:39:20;23.92;;;20.52;;
76667;SDS011;65585;51.166;16.922;2023-08-20T05:41:46;23.83;;;18.10;;
76667;SDS011;65585;51.166;16.922;2023-08-20T05:44:12;20.75;;;18.48;;
76667;SDS011;65585;51.166;16.922;2023-08-20T05:46:38;23.17;;;18.77;;
76667;SDS011;65585;51.166;16.922;2023-08-20T05:49:03;22.17;;;17.75;;
76667;SDS011;65585;51.166;16.922;2023-08-20T05:51:30;22.38;;;18.95;;
76667;SDS011;65585;51.166;16.922;2023-08-20T05:53:56;18.70;;;16.25;;
76667;SDS011;65585;51.166;16.922;2023-08-20T05:56:22;21.65;;;16.15;;
76667;SDS011;65585;51.166;16.922;2023-08-20T05:58:47;21.88;;;16.73;;
76667;SDS011;65585;51.166;16.922;2023-08-20T06:01:14;16.42;;;14.32;;
76667;SDS011;65585;51.166;16.922;2023-08-20T06:03:39;19.52;;;16.33;;
76667;SDS011;65585;51.166;16.922;2023-08-20T06:06:05;17.77;;;14.82;;
76667;SDS011;65585;51.166;16.922;2023-08-20T06:08:31;16.25;;;13.18;;
76667;SDS011;65585;51.166;16.922;2023-08-20T06:10:57;21.35;;;13.27;;
76667;SDS011;65585;51.166;16.922;2023-08-20T06:13:23;16.17;;;12.95;;
76667;SDS011;65585;51.166;16.922;2023-08-20T06:15:49;16.30;;;14.38;;
76667;SDS011;65585;51.166;16.922;2023-08-20T06:18:15;15.80;;;12.48;;
76667;SDS011;65585;51.166;16.922;2023-08-20T06:20:41;15.23;;;13.65;;
76667;SDS011;65585;51.166;16.922;2023-08-20T06:23:07;14.27;;;12.75;;
76667;SDS011;65585;51.166;16.922;2023-08-20T06:25:33;15.48;;;12.05;;
76667;SDS011;65585;51.166;16.922;2023-08-20T06:27:59;14.68;;;12.38;;
76667;SDS011;65585;51.166;16.922;2023-08-20T06:30:25;15.10;;;13.50;;
76667;SDS011;65585;51.166;16.922;2023-08-20T06:32:51;14.02;;;11.23;;
76667;SDS011;65585;51.166;16.922;2023-08-20T06:35:17;15.70;;;11.80;;
76667;SDS011;65585;51.166;16.922;2023-08-20T06:37:43;16.10;;;12.63;;
76667;SDS011;65585;51.166;16.922;2023-08-20T06:40:09;13.80;;;12.27;;
76667;SDS011;65585;51.166;16.922;2023-08-20T06:42:35;14.93;;;13.32;;
76667;SDS011;65585;51.166;16.922;2023-08-20T06:45:01;13.23;;;11.85;;
76667;SDS011;65585;51.166;16.922;2023-08-20T06:47:27;12.15;;;10.88;;
76667;SDS011;65585;51.166;16.922;2023-08-20T06:49:53;13.23;;;11.82;;
76667;SDS011;65585;51.166;16.922;2023-08-20T06:52:19;13.68;;;12.38;;
76667;SDS011;65585;51.166;16.922;2023-08-20T06:54:45;13.02;;;11.43;;
76667;SDS011;65585;51.166;16.922;2023-08-20T06:57:11;15.07;;;10.10;;
76667;SDS011;65585;51.166;16.922;2023-08-20T06:59:37;12.18;;;10.95;;
76667;SDS011;65585;51.166;16.922;2023-08-20T07:02:03;13.77;;;12.20;;
76667;SDS011;65585;51.166;16.922;2023-08-20T07:04:29;13.02;;;11.75;;
76667;SDS011;65585;51.166;16.922;2023-08-20T07:06:55;16.00;;;10.10;;
76667;SDS011;65585;51.166;16.922;2023-08-20T07:09:21;12.38;;;11.18;;
76667;SDS011;65585;51.166;16.922;2023-08-20T07:11:47;16.27;;;11.15;;
76667;SDS011;65585;51.166;16.922;2023-08-20T07:14:13;11.95;;;10.75;;
76667;SDS011;65585;51.166;16.922;2023-08-20T07:16:39;12.07;;;10.88;;
76667;SDS011;65585;51.166;16.922;2023-08-20T07:19:05;11.75;;;10.55;;
76667;SDS011;65585;51.166;16.922;2023-08-20T07:21:30;10.25;;;9.25;;
76667;SDS011;65585;51.166;16.922;2023-08-20T07:23:56;10.98;;;9.88;;
76667;SDS011;65585;51.166;16.922;2023-08-20T07:26:22;11.18;;;10.00;;
76667;SDS011;65585;51.166;16.922;2023-08-20T07:28:48;11.25;;;9.90;;
76667;SDS011;65585;51.166;16.922;2023-08-20T07:31:31;10.85;;;9.85;;
76667;SDS011;65585;51.166;16.922;2023-08-20T07:34:00;10.98;;;9.45;;
76667;SDS011;65585;51.166;16.922;2023-08-20T07:36:26;12.20;;;10.95;;
76667;SDS011;65585;51.166;16.922;2023-08-20T07:38:53;11.65;;;10.45;;
76667;SDS011;65585;51.166;16.922;2023-08-20T07:41:21;11.40;;;10.27;;
76667;SDS011;65585;51.166;16.922;2023-08-20T07:46:14;13.88;;;9.10;;
76667;SDS011;65585;51.166;16.922;2023-08-20T07:48:41;10.73;;;9.68;;
76667;SDS011;65585;51.166;16.922;2023-08-20T07:51:07;11.57;;;10.48;;
76667;SDS011;65585;51.166;16.922;2023-08-20T07:53:33;12.40;;;11.18;;
76667;SDS011;65585;51.166;16.922;2023-08-20T07:56:00;11.43;;;10.27;;
76667;SDS011;65585;51.166;16.922;2023-08-20T07:58:26;12.60;;;11.40;;
76667;SDS011;65585;51.166;16.922;2023-08-20T08:00:53;12.30;;;9.98;;
76667;SDS011;65585;51.166;16.922;2023-08-20T08:03:19;11.60;;;10.45;;
76667;SDS011;65585;51.166;16.922;2023-08-20T08:05:46;11.80;;;10.60;;
76667;SDS011;65585;51.166;16.922;2023-08-20T08:08:14;10.73;;;9.70;;
76667;SDS011;65585;51.166;16.922;2023-08-20T08:13:06;14.98;;;10.25;;
76667;SDS011;65585;51.166;16.922;2023-08-20T08:15:32;10.63;;;9.63;;
76667;SDS011;65585;51.166;16.922;2023-08-20T08:17:58;10.73;;;9.70;;
76667;SDS011;65585;51.166;16.922;2023-08-20T08:20:24;10.77;;;9.77;;
76667;SDS011;65585;51.166;16.922;2023-08-20T08:22:50;10.52;;;8.68;;
76667;SDS011;65585;51.166;16.922;2023-08-20T08:25:16;10.32;;;9.32;;
76667;SDS011;65585;51.166;16.922;2023-08-20T08:27:42;11.15;;;9.95;;
76667;SDS011;65585;51.166;16.922;2023-08-20T08:30:08;11.45;;;9.63;;
76667;SDS011;65585;51.166;16.922;2023-08-20T08:32:34;10.90;;;9.50;;
76667;SDS011;65585;51.166;16.922;2023-08-20T08:35:00;9.43;;;8.43;;
76667;SDS011;65585;51.166;16.922;2023-08-20T08:37:26;9.85;;;8.20;;
76667;SDS011;65585;51.166;16.922;2023-08-20T08:39:51;10.02;;;9.00;;
76667;SDS011;65585;51.166;16.922;2023-08-20T08:42:18;9.15;;;8.30;;
76667;SDS011;65585;51.166;16.922;2023-08-20T08:44:46;8.68;;;7.88;;
76667;SDS011;65585;51.166;16.922;2023-08-20T08:47:13;9.50;;;8.60;;
76667;SDS011;65585;51.166;16.922;2023-08-20T08:49:39;11.18;;;8.82;;
76667;SDS011;65585;51.166;16.922;2023-08-20T08:52:05;10.60;;;8.40;;
76667;SDS011;65585;51.166;16.922;2023-08-20T08:54:34;9.45;;;8.45;;
76667;SDS011;65585;51.166;16.922;2023-08-20T08:57:01;9.88;;;6.82;;
76667;SDS011;65585;51.166;16.922;2023-08-20T08:59:27;8.23;;;7.43;;
76667;SDS011;65585;51.166;16.922;2023-08-20T09:01:53;8.48;;;7.68;;
76667;SDS011;65585;51.166;16.922;2023-08-20T09:04:19;9.07;;;8.15;;
76667;SDS011;65585;51.166;16.922;2023-08-20T09:06:46;8.90;;;8.10;;
76667;SDS011;65585;51.166;16.922;2023-08-20T09:09:12;9.20;;;7.53;;
76667;SDS011;65585;51.166;16.922;2023-08-20T09:11:38;16.17;;;8.07;;
76667;SDS011;65585;51.166;16.922;2023-08-20T09:14:05;9.05;;;7.93;;
76667;SDS011;65585;51.166;16.922;2023-08-20T09:16:31;8.98;;;8.02;;
76667;SDS011;65585;51.166;16.922;2023-08-20T09:18:58;9.70;;;8.80;;
76667;SDS011;65585;51.166;16.922;2023-08-20T09:21:28;8.93;;;8.05;;
76667;SDS011;65585;51.166;16.922;2023-08-20T09:23:55;9.95;;;7.13;;
76667;SDS011;65585;51.166;16.922;2023-08-20T09:26:22;9.13;;;8.23;;
76667;SDS011;65585;51.166;16.922;2023-08-20T09:28:48;11.50;;;8.23;;
76667;SDS011;65585;51.166;16.922;2023-08-20T09:31:14;8.93;;;7.65;;
76667;SDS011;65585;51.166;16.922;2023-08-20T09:33:53;8.60;;;7.80;;
76667;SDS011;65585;51.166;16.922;2023-08-20T09:36:28;8.52;;;7.65;;
76667;SDS011;65585;51.166;16.922;2023-08-20T09:38:55;10.02;;;8.15;;
76667;SDS011;65585;51.166;16.922;2023-08-20T09:41:21;9.50;;;8.68;;
76667;SDS011;65585;51.166;16.922;2023-08-20T09:43:47;9.20;;;8.30;;
76667;SDS011;65585;51.166;16.922;2023-08-20T09:46:14;8.55;;;7.80;;
76667;SDS011;65585;51.166;16.922;2023-08-20T09:48:42;8.20;;;7.40;;
76667;SDS011;65585;51.166;16.922;2023-08-20T09:51:11;9.07;;;8.10;;
76667;SDS011;65585;51.166;16.922;2023-08-20T09:54:13;9.02;;;8.23;;
76667;SDS011;65585;51.166;16.922;2023-08-20T09:56:30;9.32;;;8.35;;
76667;SDS011;65585;51.166;16.922;2023-08-20T09:58:57;13.75;;;8.23;;
76667;SDS011;65585;51.166;16.922;2023-08-20T10:01:24;9.15;;;8.35;;
76667;SDS011;65585;51.166;16.922;2023-08-20T10:03:50;8.60;;;7.80;;
76667;SDS011;65585;51.166;16.922;2023-08-20T10:06:17;9.73;;;8.82;;
76667;SDS011;65585;51.166;16.922;2023-08-20T10:08:44;10.30;;;8.38;;
76667;SDS011;65585;51.166;16.922;2023-08-20T10:11:12;8.63;;;7.47;;
76667;SDS011;65585;51.166;16.922;2023-08-20T10:13:38;9.93;;;8.55;;
76667;SDS011;65585;51.166;16.922;2023-08-20T10:16:05;9.48;;;8.40;;
76667;SDS011;65585;51.166;16.922;2023-08-20T10:18:30;9.02;;;8.18;;
76667;SDS011;65585;51.166;16.922;2023-08-20T10:21:00;10.85;;;9.27;;
76667;SDS011;65585;51.166;16.922;2023-08-20T10:23:26;9.68;;;8.88;;
76667;SDS011;65585;51.166;16.922;2023-08-20T10:25:53;9.80;;;8.80;;
76667;SDS011;65585;51.166;16.922;2023-08-20T10:28:22;9.50;;;8.60;;
76667;SDS011;65585;51.166;16.922;2023-08-20T10:31:07;9.75;;;8.93;;
76667;SDS011;65585;51.166;16.922;2023-08-20T10:33:34;9.38;;;8.18;;
76667;SDS011;65585;51.166;16.922;2023-08-20T10:36:15;9.43;;;8.57;;
76667;SDS011;65585;51.166;16.922;2023-08-20T10:38:41;9.88;;;8.90;;
76667;SDS011;65585;51.166;16.922;2023-08-20T10:41:07;9.35;;;8.45;;
76667;SDS011;65585;51.166;16.922;2023-08-20T10:46:19;9.85;;;8.73;;
76667;SDS011;65585;51.166;16.922;2023-08-20T10:53:37;10.20;;;9.10;;
76667;SDS011;65585;51.166;16.922;2023-08-20T10:56:21;9.68;;;8.20;;
76667;SDS011;65585;51.166;16.922;2023-08-20T10:58:47;9.38;;;8.45;;
76667;SDS011;65585;51.166;16.922;2023-08-20T11:03:43;9.48;;;8.57;;
76667;SDS011;65585;51.166;16.922;2023-08-20T11:06:09;9.60;;;8.60;;
76667;SDS011;65585;51.166;16.922;2023-08-20T11:08:35;9.68;;;8.75;;
76667;SDS011;65585;51.166;16.922;2023-08-20T11:11:02;10.00;;;8.95;;
76667;SDS011;65585;51.166;16.922;2023-08-20T11:13:29;9.93;;;9.02;;
76667;SDS011;65585;51.166;16.922;2023-08-20T11:15:56;8.95;;;8.15;;
76667;SDS011;65585;51.166;16.922;2023-08-20T11:18:21;10.07;;;9.07;;
76667;SDS011;65585;51.166;16.922;2023-08-20T11:20:48;8.90;;;8.10;;
76667;SDS011;65585;51.166;16.922;2023-08-20T11:23:14;9.23;;;8.32;;
76667;SDS011;65585;51.166;16.922;2023-08-20T11:25:43;10.25;;;7.55;;
76667;SDS011;65585;51.166;16.922;2023-08-20T11:28:09;9.30;;;8.50;;
76667;SDS011;65585;51.166;16.922;2023-08-20T11:30:35;8.35;;;7.55;;
76667;SDS011;65585;51.166;16.922;2023-08-20T11:33:01;9.85;;;8.15;;
76667;SDS011;65585;51.166;16.922;2023-08-20T11:35:28;8.85;;;7.95;;
76667;SDS011;65585;51.166;16.922;2023-08-20T11:37:54;8.93;;;8.02;;
76667;SDS011;65585;51.166;16.922;2023-08-20T11:40:22;9.65;;;8.73;;
76667;SDS011;65585;51.166;16.922;2023-08-20T11:42:48;9.57;;;8.73;;
76667;SDS011;65585;51.166;16.922;2023-08-20T11:45:14;9.27;;;8.18;;
76667;SDS011;65585;51.166;16.922;2023-08-20T11:47:41;8.55;;;7.75;;
76667;SDS011;65585;51.166;16.922;2023-08-20T11:50:08;9.43;;;8.50;;
76667;SDS011;65585;51.166;16.922;2023-08-20T11:55:00;10.07;;;9.02;;
76667;SDS011;65585;51.166;16.922;2023-08-20T11:57:26;10.00;;;8.75;;
76667;SDS011;65585;51.166;16.922;2023-08-20T11:59:54;10.05;;;8.68;;
76667;SDS011;65585;51.166;16.922;2023-08-20T12:02:26;8.57;;;7.88;;
76667;SDS011;65585;51.166;16.922;2023-08-20T12:04:56;9.80;;;8.43;;
76667;SDS011;65585;51.166;16.922;2023-08-20T12:07:28;8.77;;;7.97;;
76667;SDS011;65585;51.166;16.922;2023-08-20T12:09:55;8.77;;;7.93;;
76667;SDS011;65585;51.166;16.922;2023-08-20T12:12:21;8.75;;;7.95;;
76667;SDS011;65585;51.166;16.922;2023-08-20T12:14:48;8.70;;;7.80;;
76667;SDS011;65585;51.166;16.922;2023-08-20T12:17:18;10.10;;;9.07;;
76667;SDS011;65585;51.166;16.922;2023-08-20T12:19:45;9.38;;;8.57;;
76667;SDS011;65585;51.166;16.922;2023-08-20T12:22:11;12.68;;;7.50;;
76667;SDS011;65585;51.166;16.922;2023-08-20T12:24:38;9.50;;;8.60;;
76667;SDS011;65585;51.166;16.922;2023-08-20T12:27:04;8.82;;;7.90;;
76667;SDS011;65585;51.166;16.922;2023-08-20T12:29:30;10.10;;;8.13;;
76667;SDS011;65585;51.166;16.922;2023-08-20T12:31:56;9.95;;;8.10;;
76667;SDS011;65585;51.166;16.922;2023-08-20T12:34:22;8.82;;;8.10;;
76667;SDS011;65585;51.166;16.922;2023-08-20T12:36:49;9.13;;;7.65;;
76667;SDS011;65585;51.166;16.922;2023-08-20T12:39:15;8.52;;;7.72;;
76667;SDS011;65585;51.166;16.922;2023-08-20T12:41:41;9.00;;;8.30;;
76667;SDS011;65585;51.166;16.922;2023-08-20T12:44:08;8.65;;;7.90;;
76667;SDS011;65585;51.166;16.922;2023-08-20T12:46:34;8.18;;;7.38;;
76667;SDS011;65585;51.166;16.922;2023-08-20T12:49:00;8.48;;;7.13;;
76667;SDS011;65585;51.166;16.922;2023-08-20T12:51:26;8.05;;;7.32;;
76667;SDS011;65585;51.166;16.922;2023-08-20T12:53:53;8.25;;;7.55;;
76667;SDS011;65585;51.166;16.922;2023-08-20T12:56:19;8.23;;;7.40;;
76667;SDS011;65585;51.166;16.922;2023-08-20T12:58:45;8.77;;;8.07;;
76667;SDS011;65585;51.166;16.922;2023-08-20T13:01:10;9.07;;;8.30;;
76667;SDS011;65585;51.166;16.922;2023-08-20T13:03:37;8.93;;;7.82;;
76667;SDS011;65585;51.166;16.922;2023-08-20T13:06:04;8.70;;;7.93;;
76667;SDS011;65585;51.166;16.922;2023-08-20T13:08:30;8.27;;;7.47;;
76667;SDS011;65585;51.166;16.922;2023-08-20T13:10:57;8.50;;;7.70;;
76667;SDS011;65585;51.166;16.922;2023-08-20T13:13:23;8.55;;;7.85;;
76667;SDS011;65585;51.166;16.922;2023-08-20T13:18:16;9.23;;;7.35;;
76667;SDS011;65585;51.166;16.922;2023-08-20T13:20:42;8.13;;;7.32;;
76667;SDS011;65585;51.166;16.922;2023-08-20T13:23:09;9.15;;;6.95;;
76667;SDS011;65585;51.166;16.922;2023-08-20T13:25:35;8.02;;;7.25;;
76667;SDS011;65585;51.166;16.922;2023-08-20T13:28:01;8.73;;;6.80;;
76667;SDS011;65585;51.166;16.922;2023-08-20T13:30:28;7.50;;;6.75;;
76667;SDS011;65585;51.166;16.922;2023-08-20T13:32:54;7.43;;;6.72;;
76667;SDS011;65585;51.166;16.922;2023-08-20T13:35:20;7.80;;;6.85;;
76667;SDS011;65585;51.166;16.922;2023-08-20T13:37:46;7.22;;;6.63;;
76667;SDS011;65585;51.166;16.922;2023-08-20T13:40:12;7.80;;;6.97;;
76667;SDS011;65585;51.166;16.922;2023-08-20T13:45:04;6.70;;;6.07;;
76667;SDS011;65585;51.166;16.922;2023-08-20T13:47:31;7.03;;;6.30;;
76667;SDS011;65585;51.166;16.922;2023-08-20T13:49:57;7.53;;;6.70;;
76667;SDS011;65585;51.166;16.922;2023-08-20T13:52:23;8.00;;;7.03;;
76667;SDS011;65585;51.166;16.922;2023-08-20T13:54:48;8.40;;;7.38;;
76667;SDS011;65585;51.166;16.922;2023-08-20T13:57:15;10.38;;;6.55;;
76667;SDS011;65585;51.166;16.922;2023-08-20T13:59:40;6.85;;;6.15;;
76667;SDS011;65585;51.166;16.922;2023-08-20T14:02:07;7.93;;;6.82;;
76667;SDS011;65585;51.166;16.922;2023-08-20T14:04:33;6.95;;;6.35;;
76667;SDS011;65585;51.166;16.922;2023-08-20T14:06:59;7.38;;;6.70;;
76667;SDS011;65585;51.166;16.922;2023-08-20T14:09:25;9.27;;;5.63;;
76667;SDS011;65585;51.166;16.922;2023-08-20T14:11:51;9.10;;;6.38;;
76667;SDS011;65585;51.166;16.922;2023-08-20T14:14:17;8.02;;;7.32;;
76667;SDS011;65585;51.166;16.922;2023-08-20T14:16:43;8.75;;;6.05;;
76667;SDS011;65585;51.166;16.922;2023-08-20T14:19:09;7.50;;;6.30;;
76667;SDS011;65585;51.166;16.922;2023-08-20T14:21:36;7.38;;;6.68;;
76667;SDS011;65585;51.166;16.922;2023-08-20T14:24:01;6.70;;;5.80;;
76667;SDS011;65585;51.166;16.922;2023-08-20T14:26:27;7.05;;;6.32;;
76667;SDS011;65585;51.166;16.922;2023-08-20T14:28:53;5.97;;;5.38;;
76667;SDS011;65585;51.166;16.922;2023-08-20T14:31:20;6.68;;;5.38;;
76667;SDS011;65585;51.166;16.922;2023-08-20T14:33:46;6.43;;;5.47;;
76667;SDS011;65585;51.166;16.922;2023-08-20T14:36:12;6.82;;;5.10;;
76667;SDS011;65585;51.166;16.922;2023-08-20T14:38:38;8.05;;;5.63;;
76667;SDS011;65585;51.166;16.922;2023-08-20T14:41:04;6.25;;;5.20;;
76667;SDS011;65585;51.166;16.922;2023-08-20T14:43:29;5.50;;;4.90;;
76667;SDS011;65585;51.166;16.922;2023-08-20T14:45:56;8.10;;;5.88;;
76667;SDS011;65585;51.166;16.922;2023-08-20T14:48:22;6.10;;;5.60;;